Airfield :
LOGIN :

Register | Disclaimer

   EN    FR    IT 

 










Legend :    VFR   Marginal VFR   IFR   Intensive IFR   Very Intensive IFR
Visi :
Ceiling :
>= 8 km
>= 3000ft
5 to 8 km
1000 to 3000 ft
1500m to 5 km
500 to 1000 ft
800 to 1500m
200 to 500 ft
< 800m
< 200 ft
Symbols :   Thunderstorms  Fog  Heavy snow  Heavy precipitations  Wind > 20 kt
SIGMETs :     Misc.  Thunderstorms  Icing  Turbulence  Mountain Waves  Volcanic Ashes






- Airport Elevation : 247 ft
- IATA code : BLL


EKBI - Billund

CURRENT METAR :
  • 242250Z AUTO 29015KT 9999 OVC012/// 09/08 Q1022

EXPIRED METARs :
  • 242220Z AUTO 29014KT 9999 DZ OVC012/// 09/08 Q1021
  • 242150Z AUTO 28017KT 9999 OVC013/// 10/08 Q1021
  • 242120Z AUTO 28014KT 9999 OVC013/// 10/08 Q1021
  • 242050Z AUTO 28014KT 9999 OVC011/// 10/08 Q1021

TAF TAF EKBI
Valid from the 24 at 18:00 until the 25 at 18:00 UTC


241715Z 2418/2518 28015KT 9999 BKN018
TEMPO 2418/2507 BKN008
BECMG 2509/2512 34008KT



MET'MAP, your aeronautical weather chart ! - Copyright ORBIFLY December 2007 - Disclaimer

ORBIFLY MET'MAP TEAM :

Programming & Development : Alexandra Zaïnal
Concept & original design : Baudouin d'Aumeries
Assistance for programming : Marc-Olivier Méhu
Technical & hardware support : Manuel Goepfert

Contact : metmap@orbifly.com




SOURCES & CREDITS :

   NOAA